Time;durP1;ratioP1;P1;durP2;ratioP2;P2;SDS_P1;SDS_P2;PMS_P1;PMS_P2;Temp;Humidity;BMP_temperature;BMP_pressure;BME280_temperature;BME280_humidity;BME280_pressure;Samples;Min_cycle;Max_cycle;Signal;HPM_P1;HPM_P2
2022/09/04 00:00:58;;;;;;;;;;;20.70;44.10;;;;;;447342;264;1267;-51
2022/09/04 00:03:00;;;;;;;;;;;20.70;44.10;;;;;;447138;264;2243;-50
2022/09/04 00:05:00;;;;;;;;;;;20.70;44.10;;;;;;447045;265;2304;-50
2022/09/04 00:07:02;;;;;;;;;;;20.80;44.20;;;;;;447377;264;1436;-50
2022/09/04 00:09:03;;;;;;;;;;;20.70;44.20;;;;;;447093;264;2200;-50
2022/09/04 00:11:04;;;;;;;;;;;20.70;44.20;;;;;;447412;264;1544;-50
2022/09/04 00:13:06;;;;;;;;;;;20.70;44.20;;;;;;447157;264;1280;-50
2022/09/04 00:15:07;;;;;;;;;;;20.70;44.20;;;;;;447103;265;1183;-51
2022/09/04 00:17:08;;;;;;;;;;;20.80;44.30;;;;;;447201;264;1404;-51
2022/09/04 00:19:10;;;;;;;;;;;20.70;44.20;;;;;;447479;263;1126;-50
2022/09/04 00:21:11;;;;;;;;;;;20.70;44.30;;;;;;447404;264;1345;-51
2022/09/04 00:23:12;;;;;;;;;;;20.70;44.30;;;;;;447355;264;1294;-50
2022/09/04 00:25:14;;;;;;;;;;;20.80;44.40;;;;;;447112;264;1277;-50
2022/09/04 00:27:15;;;;;;;;;;;20.70;44.30;;;;;;447285;264;1301;-50
2022/09/04 00:29:16;;;;;;;;;;;20.70;44.30;;;;;;447361;264;2184;-50
2022/09/04 00:31:18;;;;;;;;;;;20.70;44.30;;;;;;447414;264;1342;-51
2022/09/04 00:33:19;;;;;;;;;;;20.80;44.40;;;;;;447136;264;1323;-50
2022/09/04 00:35:20;;;;;;;;;;;20.70;44.30;;;;;;447026;265;1379;-50
2022/09/04 00:37:22;;;;;;;;;;;20.80;44.40;;;;;;447283;264;1312;-50
2022/09/04 00:39:23;;;;;;;;;;;20.70;44.40;;;;;;447076;265;1283;-50
2022/09/04 00:41:24;;;;;;;;;;;20.70;44.40;;;;;;447061;265;1283;-50
2022/09/04 00:43:26;;;;;;;;;;;20.70;44.50;;;;;;447446;264;1291;-50
2022/09/04 00:45:27;;;;;;;;;;;20.80;44.60;;;;;;447151;264;1300;-50
2022/09/04 00:47:28;;;;;;;;;;;20.80;44.60;;;;;;447414;264;1228;-50
2022/09/04 00:49:30;;;;;;;;;;;20.80;44.60;;;;;;447436;264;2176;-51
2022/09/04 00:51:31;;;;;;;;;;;20.80;44.60;;;;;;447034;265;1298;-50
2022/09/04 00:53:32;;;;;;;;;;;20.70;44.60;;;;;;447070;265;1420;-50
2022/09/04 00:55:34;;;;;;;;;;;20.80;44.70;;;;;;447063;265;1272;-50
2022/09/04 00:57:35;;;;;;;;;;;20.70;44.60;;;;;;447063;265;1227;-50
2022/09/04 00:59:36;;;;;;;;;;;20.70;44.60;;;;;;447180;264;1244;-50
2022/09/04 01:01:38;;;;;;;;;;;20.70;44.60;;;;;;447453;264;1259;-51
2022/09/04 01:03:39;;;;;;;;;;;20.70;44.60;;;;;;447437;264;1263;-51
2022/09/04 01:05:43;;;;;;;;;;;20.70;44.70;;;;;;447417;264;1281;-50
2022/09/04 01:07:42;;;;;;;;;;;20.70;44.70;;;;;;447062;265;1426;-51
2022/09/04 01:09:43;;;;;;;;;;;20.80;44.80;;;;;;447052;265;2204;-50
2022/09/04 01:11:45;;;;;;;;;;;20.70;44.70;;;;;;447071;265;1378;-50
2022/09/04 01:13:46;;;;;;;;;;;20.80;44.80;;;;;;447455;264;1167;-50
2022/09/04 01:15:47;;;;;;;;;;;20.70;44.80;;;;;;447042;265;1261;-50
2022/09/04 01:17:49;;;;;;;;;;;20.70;44.70;;;;;;447102;264;1257;-50
2022/09/04 01:19:50;;;;;;;;;;;20.70;44.70;;;;;;447457;264;1261;-50
2022/09/04 01:21:51;;;;;;;;;;;20.70;44.80;;;;;;447425;264;1261;-50
2022/09/04 01:23:53;;;;;;;;;;;20.70;44.80;;;;;;447202;264;1279;-51
2022/09/04 01:25:54;;;;;;;;;;;20.70;44.80;;;;;;447468;264;1224;-50
2022/09/04 01:27:55;;;;;;;;;;;20.70;44.80;;;;;;447184;264;1299;-50
2022/09/04 01:29:57;;;;;;;;;;;20.80;44.90;;;;;;447413;264;2215;-50
2022/09/04 01:31:58;;;;;;;;;;;20.80;44.90;;;;;;447275;264;1316;-50
2022/09/04 01:33:59;;;;;;;;;;;20.70;44.90;;;;;;447075;265;1330;-50
2022/09/04 01:36:02;;;;;;;;;;;20.80;45.00;;;;;;447233;264;1277;-50
2022/09/04 01:38:02;;;;;;;;;;;20.70;44.90;;;;;;447086;265;1272;-51
2022/09/04 01:40:04;;;;;;;;;;;20.70;44.90;;;;;;447180;264;1275;-50
2022/09/04 01:42:05;;;;;;;;;;;20.70;44.90;;;;;;447474;264;1246;-50
2022/09/04 01:44:06;;;;;;;;;;;20.70;45.00;;;;;;447476;264;1127;-49
2022/09/04 01:46:08;;;;;;;;;;;20.70;45.00;;;;;;447230;264;1278;-50
2022/09/04 01:48:09;;;;;;;;;;;20.70;45.00;;;;;;447080;265;1223;-51
2022/09/04 01:50:11;;;;;;;;;;;20.70;45.10;;;;;;447044;265;2205;-50
2022/09/04 01:52:12;;;;;;;;;;;20.70;45.00;;;;;;447456;264;1243;-50
2022/09/04 01:54:13;;;;;;;;;;;20.70;45.10;;;;;;447460;264;1212;-50
2022/09/04 01:56:15;;;;;;;;;;;20.70;45.10;;;;;;447079;265;1267;-50
2022/09/04 01:58:16;;;;;;;;;;;20.70;45.10;;;;;;447390;264;1199;-50
2022/09/04 02:00:18;;;;;;;;;;;20.70;45.10;;;;;;447423;264;1306;-50
2022/09/04 02:02:19;;;;;;;;;;;20.70;45.10;;;;;;447049;265;1240;-50
2022/09/04 02:04:20;;;;;;;;;;;20.70;45.10;;;;;;447327;264;1527;-50
2022/09/04 02:06:21;;;;;;;;;;;20.70;45.10;;;;;;447048;264;1311;-51
2022/09/04 02:08:23;;;;;;;;;;;20.70;45.10;;;;;;447051;265;1264;-50
2022/09/04 02:10:24;;;;;;;;;;;20.80;45.20;;;;;;447049;265;2169;-50
2022/09/04 02:12:26;;;;;;;;;;;20.70;45.20;;;;;;447409;264;1321;-51
2022/09/04 02:14:27;;;;;;;;;;;20.70;45.20;;;;;;447431;264;1575;-50
2022/09/04 02:16:29;;;;;;;;;;;20.70;45.20;;;;;;447031;264;1523;-50
2022/09/04 02:18:31;;;;;;;;;;;20.70;45.20;;;;;;447434;264;2361;-50
2022/09/04 02:20:32;;;;;;;;;;;20.70;45.20;;;;;;447257;264;2377;-50
2022/09/04 02:22:33;;;;;;;;;;;20.70;45.30;;;;;;447022;265;1579;-50
2022/09/04 02:24:34;;;;;;;;;;;20.70;45.30;;;;;;447406;264;1330;-50
2022/09/04 02:26:36;;;;;;;;;;;20.80;45.30;;;;;;447312;264;1307;-50
2022/09/04 02:28:37;;;;;;;;;;;20.70;45.20;;;;;;447449;264;1323;-50
2022/09/04 02:30:38;;;;;;;;;;;20.70;45.30;;;;;;447052;264;2194;-50
2022/09/04 02:32:40;;;;;;;;;;;20.70;45.30;;;;;;447072;264;1308;-50
2022/09/04 02:34:41;;;;;;;;;;;20.70;45.30;;;;;;447447;264;1364;-50
2022/09/04 02:36:43;;;;;;;;;;;20.70;45.20;;;;;;447029;265;1346;-50
2022/09/04 02:38:44;;;;;;;;;;;20.70;45.10;;;;;;447417;264;1314;-49
2022/09/04 02:40:46;;;;;;;;;;;20.70;45.00;;;;;;447312;264;1223;-50
2022/09/04 02:42:47;;;;;;;;;;;20.80;45.00;;;;;;447072;265;1272;-50
2022/09/04 02:44:48;;;;;;;;;;;20.70;44.80;;;;;;447446;264;1219;-50
2022/09/04 02:46:50;;;;;;;;;;;20.70;44.90;;;;;;447250;264;1306;-50
2022/09/04 02:48:51;;;;;;;;;;;20.80;44.80;;;;;;447193;264;1380;-50
2022/09/04 02:50:53;;;;;;;;;;;20.70;44.80;;;;;;447298;264;2204;-51
2022/09/04 02:52:54;;;;;;;;;;;20.70;44.70;;;;;;447414;264;1401;-50
2022/09/04 02:54:57;;;;;;;;;;;20.70;44.70;;;;;;447059;264;1228;-51
2022/09/04 02:56:58;;;;;;;;;;;20.70;44.60;;;;;;447429;264;1299;-50
2022/09/04 02:59:01;;;;;;;;;;;20.80;44.60;;;;;;447054;265;1355;-50
2022/09/04 03:01:01;;;;;;;;;;;20.80;44.50;;;;;;447440;264;1620;-51
2022/09/04 03:03:02;;;;;;;;;;;20.80;44.50;;;;;;447027;265;1932;-51
2022/09/04 03:05:03;;;;;;;;;;;20.80;44.40;;;;;;447114;264;1302;-50
2022/09/04 03:07:05;;;;;;;;;;;20.70;44.30;;;;;;447121;264;1301;-50
2022/09/04 03:09:06;;;;;;;;;;;20.70;44.30;;;;;;447066;265;1280;-50
2022/09/04 03:11:07;;;;;;;;;;;20.80;44.40;;;;;;447044;265;2224;-50
2022/09/04 03:13:09;;;;;;;;;;;20.80;44.30;;;;;;447068;265;1287;-51
2022/09/04 03:15:10;;;;;;;;;;;20.80;44.20;;;;;;447074;265;1277;-50
2022/09/04 03:17:11;;;;;;;;;;;20.80;44.20;;;;;;447268;264;1352;-50
2022/09/04 03:19:13;;;;;;;;;;;20.80;44.10;;;;;;447440;264;1298;-50
2022/09/04 03:21:15;;;;;;;;;;;20.80;44.20;;;;;;447282;264;1342;-50
2022/09/04 03:23:16;;;;;;;;;;;20.80;44.10;;;;;;447059;265;1311;-51
2022/09/04 03:25:17;;;;;;;;;;;20.80;44.00;;;;;;447095;265;1348;-50
2022/09/04 03:27:18;;;;;;;;;;;20.80;44.10;;;;;;447151;264;1354;-50
2022/09/04 03:29:23;;;;;;;;;;;20.80;44.00;;;;;;447070;265;1328;-50
2022/09/04 03:31:22;;;;;;;;;;;20.80;43.90;;;;;;447301;264;2482;-50
2022/09/04 03:33:23;;;;;;;;;;;20.80;43.90;;;;;;447104;264;1277;-50
2022/09/04 03:35:24;;;;;;;;;;;20.80;43.90;;;;;;447197;264;1343;-50
2022/09/04 03:37:26;;;;;;;;;;;20.80;43.90;;;;;;447069;265;1456;-51
2022/09/04 03:39:27;;;;;;;;;;;20.80;43.80;;;;;;447305;264;1275;-50
2022/09/04 03:41:29;;;;;;;;;;;20.80;43.70;;;;;;447195;264;1346;-50
2022/09/04 03:43:30;;;;;;;;;;;20.80;43.70;;;;;;447401;264;1689;-51
2022/09/04 03:45:31;;;;;;;;;;;20.80;43.60;;;;;;447305;263;1382;-50
2022/09/04 03:47:33;;;;;;;;;;;20.80;43.70;;;;;;447320;264;1298;-50
2022/09/04 03:49:35;;;;;;;;;;;20.80;43.60;;;;;;447413;264;1393;-50
2022/09/04 03:51:35;;;;;;;;;;;20.80;43.60;;;;;;447070;264;2177;-51
2022/09/04 03:53:37;;;;;;;;;;;20.80;43.60;;;;;;447207;264;1386;-51
2022/09/04 03:55:39;;;;;;;;;;;20.80;43.60;;;;;;447330;264;1323;-50
2022/09/04 03:57:39;;;;;;;;;;;20.80;43.60;;;;;;447431;264;1606;-50
2022/09/04 03:59:41;;;;;;;;;;;20.80;43.60;;;;;;447426;264;1267;-51
2022/09/04 04:01:42;;;;;;;;;;;20.80;43.40;;;;;;447016;265;1263;-49
2022/09/04 04:03:43;;;;;;;;;;;20.80;43.40;;;;;;447107;264;1334;-50
2022/09/04 04:05:45;;;;;;;;;;;20.80;43.50;;;;;;447374;264;1407;-50
2022/09/04 04:07:46;;;;;;;;;;;20.80;43.60;;;;;;447382;264;1414;-50
2022/09/04 04:09:47;;;;;;;;;;;20.80;43.60;;;;;;447365;264;1449;-50
2022/09/04 04:11:49;;;;;;;;;;;20.80;43.60;;;;;;447092;264;2176;-50
2022/09/04 04:13:50;;;;;;;;;;;20.80;43.60;;;;;;447196;264;1342;-50
2022/09/04 04:15:51;;;;;;;;;;;20.80;43.50;;;;;;447321;264;1304;-51
2022/09/04 04:17:53;;;;;;;;;;;20.80;43.60;;;;;;447058;264;1338;-50
2022/09/04 04:19:54;;;;;;;;;;;20.80;43.40;;;;;;447430;264;1368;-50
2022/09/04 04:21:55;;;;;;;;;;;20.80;43.40;;;;;;447084;265;1250;-50
2022/09/04 04:23:57;;;;;;;;;;;20.80;43.40;;;;;;447084;265;1322;-50
2022/09/04 04:25:59;;;;;;;;;;;20.80;43.40;;;;;;447450;264;1263;-50
2022/09/04 04:27:59;;;;;;;;;;;20.80;43.40;;;;;;447089;265;2293;-50
2022/09/04 04:30:01;;;;;;;;;;;20.80;43.40;;;;;;447466;264;1342;-51
2022/09/04 04:32:12;;;;;;;;;;;20.80;43.40;;;;;;447063;265;2224;-50
2022/09/04 04:34:13;;;;;;;;;;;20.80;43.40;;;;;;447062;265;1380;-50
2022/09/04 04:36:16;;;;;;;;;;;20.80;43.30;;;;;;447304;264;1222;-51
2022/09/04 04:38:17;;;;;;;;;;;20.90;43.20;;;;;;447472;264;1435;-50
2022/09/04 04:40:18;;;;;;;;;;;20.80;43.20;;;;;;447387;263;1290;-50
2022/09/04 04:42:19;;;;;;;;;;;20.80;43.20;;;;;;447052;265;1347;-51
2022/09/04 04:45:48;;;;;;;;;;;20.80;43.10;;;;;;447433;264;1366;-50
2022/09/04 04:46:22;;;;;;;;;;;20.90;43.20;;;;;;447013;265;1264;-50
2022/09/04 04:48:23;;;;;;;;;;;20.90;43.10;;;;;;447096;264;1596;-50
2022/09/04 04:50:26;;;;;;;;;;;20.80;43.10;;;;;;447016;265;2216;-51
2022/09/04 04:52:26;;;;;;;;;;;20.80;43.10;;;;;;447437;264;1549;-50
2022/09/04 04:54:27;;;;;;;;;;;20.80;43.00;;;;;;447090;264;1271;-50
2022/09/04 04:56:28;;;;;;;;;;;20.80;43.10;;;;;;447244;264;1306;-50
2022/09/04 04:58:30;;;;;;;;;;;20.80;43.10;;;;;;447402;264;1395;-50
2022/09/04 05:00:31;;;;;;;;;;;20.80;43.00;;;;;;447410;264;1294;-50
2022/09/04 05:02:32;;;;;;;;;;;20.90;43.00;;;;;;447314;264;1402;-50
2022/09/04 05:04:34;;;;;;;;;;;20.90;43.00;;;;;;447072;265;1318;-49
2022/09/04 05:06:35;;;;;;;;;;;20.90;43.00;;;;;;447046;265;1369;-51
2022/09/04 05:08:36;;;;;;;;;;;20.80;42.90;;;;;;447046;265;1302;-50
2022/09/04 05:10:38;;;;;;;;;;;20.80;42.90;;;;;;447428;264;2169;-50
2022/09/04 05:12:39;;;;;;;;;;;20.80;42.90;;;;;;447452;264;1247;-51
2022/09/04 05:14:40;;;;;;;;;;;20.80;42.80;;;;;;447453;264;1342;-51
2022/09/04 05:16:46;;;;;;;;;;;20.90;42.90;;;;;;447051;265;1263;-50
2022/09/04 05:18:43;;;;;;;;;;;20.80;42.90;;;;;;447349;264;1595;-51
2022/09/04 05:20:44;;;;;;;;;;;20.80;42.90;;;;;;447386;264;1310;-50
2022/09/04 05:22:46;;;;;;;;;;;20.80;42.80;;;;;;447425;264;1406;-50
2022/09/04 05:24:47;;;;;;;;;;;20.80;42.90;;;;;;447047;265;1236;-51
2022/09/04 05:26:48;;;;;;;;;;;20.80;42.80;;;;;;447021;265;1371;-50
2022/09/04 05:28:50;;;;;;;;;;;20.80;42.80;;;;;;447429;264;1399;-50
2022/09/04 05:30:51;;;;;;;;;;;20.80;42.80;;;;;;447307;264;2357;-50
2022/09/04 05:32:52;;;;;;;;;;;20.80;42.80;;;;;;447046;265;1304;-51
2022/09/04 05:34:54;;;;;;;;;;;20.80;42.80;;;;;;447029;264;1295;-51
2022/09/04 05:36:55;;;;;;;;;;;20.80;42.90;;;;;;447154;264;1272;-50
2022/09/04 05:38:56;;;;;;;;;;;20.80;43.00;;;;;;447070;265;1285;-50
2022/09/04 05:40:58;;;;;;;;;;;20.80;42.90;;;;;;447453;264;1408;-50
2022/09/04 05:42:59;;;;;;;;;;;20.80;42.90;;;;;;447314;264;1203;-51
2022/09/04 05:45:00;;;;;;;;;;;20.80;42.90;;;;;;447243;264;1317;-50
2022/09/04 05:47:02;;;;;;;;;;;20.80;42.90;;;;;;447139;264;1312;-50
2022/09/04 05:49:03;;;;;;;;;;;20.80;42.80;;;;;;447090;265;1198;-50
2022/09/04 05:51:04;;;;;;;;;;;20.80;42.80;;;;;;447435;264;2173;-51
2022/09/04 05:53:06;;;;;;;;;;;20.80;42.80;;;;;;447456;264;1107;-50
2022/09/04 05:55:07;;;;;;;;;;;20.80;42.80;;;;;;447103;264;1282;-51
2022/09/04 05:57:08;;;;;;;;;;;20.80;42.70;;;;;;447117;264;1292;-50
2022/09/04 05:59:10;;;;;;;;;;;20.80;42.70;;;;;;447172;264;1449;-51
2022/09/04 06:01:12;;;;;;;;;;;20.90;42.70;;;;;;447071;265;1447;-50
2022/09/04 06:03:12;;;;;;;;;;;20.80;42.70;;;;;;447072;265;2318;-50
2022/09/04 06:05:17;;;;;;;;;;;20.80;42.70;;;;;;447174;264;1339;-50
2022/09/04 06:07:15;;;;;;;;;;;20.80;42.70;;;;;;447186;264;2467;-51
2022/09/04 06:09:16;;;;;;;;;;;20.80;42.70;;;;;;447224;264;1269;-51
2022/09/04 06:11:18;;;;;;;;;;;20.80;42.70;;;;;;447439;264;2216;-50
2022/09/04 06:13:19;;;;;;;;;;;20.80;42.70;;;;;;447081;264;1482;-50
2022/09/04 06:15:20;;;;;;;;;;;20.80;42.70;;;;;;447231;264;1284;-49
2022/09/04 06:17:22;;;;;;;;;;;20.80;42.60;;;;;;447442;264;1289;-50
2022/09/04 06:19:23;;;;;;;;;;;20.90;42.60;;;;;;447399;264;1264;-51
2022/09/04 06:21:24;;;;;;;;;;;20.80;42.60;;;;;;447397;264;1294;-51
2022/09/04 06:23:26;;;;;;;;;;;20.80;42.50;;;;;;447416;264;1231;-50
2022/09/04 06:25:27;;;;;;;;;;;20.90;42.60;;;;;;447357;264;1338;-50
2022/09/04 06:27:28;;;;;;;;;;;20.80;42.50;;;;;;447354;264;1322;-50
2022/09/04 06:29:30;;;;;;;;;;;20.80;42.60;;;;;;447355;264;1300;-50
2022/09/04 06:31:31;;;;;;;;;;;20.80;42.50;;;;;;447399;264;2172;-50
2022/09/04 06:33:32;;;;;;;;;;;20.80;42.50;;;;;;447424;264;1344;-50
2022/09/04 06:35:35;;;;;;;;;;;20.80;42.50;;;;;;447140;264;1299;-50
2022/09/04 06:37:37;;;;;;;;;;;20.80;42.50;;;;;;447387;264;1861;-50
2022/09/04 06:39:37;;;;;;;;;;;20.90;42.50;;;;;;446930;265;1962;-50
2022/09/04 06:41:38;;;;;;;;;;;20.80;42.40;;;;;;447337;264;1281;-50
2022/09/04 06:43:40;;;;;;;;;;;20.80;42.40;;;;;;447129;264;1234;-51
2022/09/04 06:45:41;;;;;;;;;;;20.80;42.40;;;;;;447141;264;1351;-50
2022/09/04 06:47:42;;;;;;;;;;;20.80;42.40;;;;;;447369;264;1241;-50
2022/09/04 06:49:44;;;;;;;;;;;20.80;42.40;;;;;;447161;264;1254;-50
2022/09/04 06:51:45;;;;;;;;;;;20.90;42.40;;;;;;447151;264;2181;-51
2022/09/04 06:53:46;;;;;;;;;;;20.80;42.30;;;;;;447156;264;1429;-51
2022/09/04 06:55:47;;;;;;;;;;;20.80;42.50;;;;;;447116;264;1422;-50
2022/09/04 06:57:49;;;;;;;;;;;20.80;42.50;;;;;;447095;265;1277;-49
2022/09/04 06:59:50;;;;;;;;;;;20.80;42.60;;;;;;447096;265;1095;-51
2022/09/04 07:01:52;;;;;;;;;;;20.80;42.50;;;;;;447091;265;1267;-50
2022/09/04 07:03:53;;;;;;;;;;;20.80;42.50;;;;;;447481;264;1276;-50
2022/09/04 07:05:54;;;;;;;;;;;20.80;42.50;;;;;;447196;264;1307;-51
2022/09/04 07:07:55;;;;;;;;;;;20.80;42.50;;;;;;447245;264;1270;-50
2022/09/04 07:09:57;;;;;;;;;;;20.90;42.50;;;;;;447461;264;1387;-50
2022/09/04 07:11:58;;;;;;;;;;;20.80;42.40;;;;;;447075;265;2232;-50
2022/09/04 07:14:00;;;;;;;;;;;20.80;42.40;;;;;;447086;265;1286;-50
2022/09/04 07:16:01;;;;;;;;;;;20.80;42.30;;;;;;447175;264;1216;-51
2022/09/04 07:18:02;;;;;;;;;;;20.80;42.40;;;;;;447134;264;1467;-51
2022/09/04 07:20:04;;;;;;;;;;;20.80;42.40;;;;;;447431;264;1266;-50
2022/09/04 07:22:05;;;;;;;;;;;20.80;42.30;;;;;;447083;265;1329;-50
2022/09/04 07:24:06;;;;;;;;;;;20.80;42.30;;;;;;447289;264;1113;-49
2022/09/04 07:26:08;;;;;;;;;;;20.80;42.30;;;;;;447333;264;1305;-51
2022/09/04 07:28:09;;;;;;;;;;;20.90;42.40;;;;;;447372;264;1124;-51
2022/09/04 07:30:10;;;;;;;;;;;20.80;42.30;;;;;;447482;264;1356;-50
2022/09/04 07:32:14;;;;;;;;;;;20.80;42.30;;;;;;447236;264;2173;-50
2022/09/04 07:34:13;;;;;;;;;;;20.80;42.20;;;;;;447130;265;2293;-50
2022/09/04 07:36:15;;;;;;;;;;;20.80;42.20;;;;;;447254;264;1274;-50
2022/09/04 07:38:16;;;;;;;;;;;20.90;42.20;;;;;;447104;265;1606;-50
2022/09/04 07:40:17;;;;;;;;;;;20.90;42.20;;;;;;447103;265;1237;-50
2022/09/04 07:42:19;;;;;;;;;;;20.80;42.20;;;;;;447445;264;1388;-50
2022/09/04 07:44:23;;;;;;;;;;;20.80;42.20;;;;;;447268;264;1340;-50
2022/09/04 07:46:21;;;;;;;;;;;20.90;42.20;;;;;;447049;265;1783;-51
2022/09/04 07:48:23;;;;;;;;;;;20.80;42.10;;;;;;447046;265;1309;-50
2022/09/04 07:50:24;;;;;;;;;;;20.80;42.10;;;;;;447113;264;1305;-50
2022/09/04 07:52:25;;;;;;;;;;;20.80;42.20;;;;;;447016;265;2193;-50
2022/09/04 07:54:28;;;;;;;;;;;20.80;42.10;;;;;;447410;264;1292;-50
2022/09/04 07:56:28;;;;;;;;;;;20.90;42.10;;;;;;447084;264;2264;-50
2022/09/04 07:58:30;;;;;;;;;;;20.90;42.10;;;;;;447393;264;1316;-50
2022/09/04 08:00:31;;;;;;;;;;;20.80;42.10;;;;;;447416;264;1452;-50
2022/09/04 08:02:32;;;;;;;;;;;20.90;42.20;;;;;;447327;264;1309;-50
2022/09/04 08:04:36;;;;;;;;;;;20.90;42.20;;;;;;447068;264;1296;-50
2022/09/04 08:06:35;;;;;;;;;;;20.90;42.10;;;;;;447137;264;2058;-50
2022/09/04 08:08:36;;;;;;;;;;;20.90;42.10;;;;;;447234;264;1408;-50
2022/09/04 08:10:37;;;;;;;;;;;20.80;42.00;;;;;;447477;264;1275;-50
2022/09/04 08:12:39;;;;;;;;;;;20.80;42.10;;;;;;447051;265;2224;-50
2022/09/04 08:14:41;;;;;;;;;;;20.90;42.20;;;;;;447343;264;1212;-50
2022/09/04 08:16:41;;;;;;;;;;;20.80;42.20;;;;;;447458;264;2015;-51
2022/09/04 08:18:43;;;;;;;;;;;20.80;42.30;;;;;;447472;263;1256;-49
2022/09/04 08:20:44;;;;;;;;;;;20.80;42.20;;;;;;447277;264;2361;-50
2022/09/04 08:22:45;;;;;;;;;;;20.80;42.20;;;;;;447107;264;1283;-50
2022/09/04 08:24:48;;;;;;;;;;;20.80;42.20;;;;;;447415;264;1280;-51
2022/09/04 08:26:48;;;;;;;;;;;20.80;42.20;;;;;;447216;264;2132;-50
2022/09/04 08:28:56;;;;;;;;;;;20.80;42.10;;;;;;447453;264;1192;-50
2022/09/04 08:30:51;;;;;;;;;;;20.80;42.20;;;;;;447163;264;1907;-50
2022/09/04 08:32:52;;;;;;;;;;;20.80;42.20;;;;;;447441;264;2168;-50
2022/09/04 08:34:53;;;;;;;;;;;20.80;42.10;;;;;;447435;264;1271;-50
2022/09/04 08:36:55;;;;;;;;;;;20.80;42.10;;;;;;447173;264;1408;-51
2022/09/04 08:38:56;;;;;;;;;;;20.80;42.10;;;;;;447363;264;1312;-51
2022/09/04 08:40:57;;;;;;;;;;;20.80;42.00;;;;;;447417;264;1206;-51
2022/09/04 08:43:02;;;;;;;;;;;20.90;42.10;;;;;;447411;264;1265;-50
2022/09/04 08:45:02;;;;;;;;;;;20.90;42.00;;;;;;447411;264;2493;-50
2022/09/04 08:47:01;;;;;;;;;;;20.90;42.00;;;;;;447016;265;2254;-50
2022/09/04 08:49:09;;;;;;;;;;;20.90;41.90;;;;;;447071;265;1231;-49
2022/09/04 08:51:04;;;;;;;;;;;20.90;42.00;;;;;;447061;265;2447;-50
2022/09/04 08:53:05;;;;;;;;;;;20.80;42.00;;;;;;447090;264;2208;-50
2022/09/04 08:55:07;;;;;;;;;;;20.80;42.20;;;;;;447052;265;1293;-50
2022/09/04 08:57:08;;;;;;;;;;;20.80;42.40;;;;;;447407;264;1267;-50
2022/09/04 08:59:09;;;;;;;;;;;20.80;42.60;;;;;;447065;265;1317;-50
2022/09/04 09:01:11;;;;;;;;;;;20.80;42.60;;;;;;447048;265;1279;-50
2022/09/04 09:03:12;;;;;;;;;;;20.80;42.80;;;;;;447191;264;1322;-50
2022/09/04 09:05:14;;;;;;;;;;;20.80;42.90;;;;;;447102;264;1267;-51
2022/09/04 09:07:15;;;;;;;;;;;20.80;42.90;;;;;;447055;265;2065;-50
2022/09/04 09:09:16;;;;;;;;;;;20.80;43.00;;;;;;447434;264;1378;-50
2022/09/04 09:11:17;;;;;;;;;;;20.70;43.00;;;;;;447414;264;1602;-50
2022/09/04 09:13:19;;;;;;;;;;;20.80;43.10;;;;;;447091;264;2188;-50
2022/09/04 09:15:20;;;;;;;;;;;20.80;43.20;;;;;;447051;265;1340;-50
2022/09/04 09:17:21;;;;;;;;;;;20.70;43.20;;;;;;447430;264;1327;-51
2022/09/04 09:19:23;;;;;;;;;;;20.70;43.20;;;;;;447188;264;1385;-50
2022/09/04 09:21:24;;;;;;;;;;;20.70;43.20;;;;;;447050;265;1244;-50
2022/09/04 09:23:25;;;;;;;;;;;20.70;43.30;;;;;;447140;264;1274;-51
2022/09/04 09:25:29;;;;;;;;;;;20.70;43.30;;;;;;447091;265;1240;-49
2022/09/04 09:27:28;;;;;;;;;;;20.70;43.30;;;;;;447495;264;1454;-49
2022/09/04 09:29:29;;;;;;;;;;;20.70;43.40;;;;;;447451;264;1243;-50
2022/09/04 09:31:33;;;;;;;;;;;20.70;43.40;;;;;;447465;264;1445;-50
2022/09/04 09:33:32;;;;;;;;;;;20.70;43.40;;;;;;447195;264;2301;-51
2022/09/04 09:35:34;;;;;;;;;;;20.70;43.40;;;;;;447055;265;1256;-50
2022/09/04 09:37:35;;;;;;;;;;;20.80;43.60;;;;;;447191;264;2077;-51
2022/09/04 09:39:36;;;;;;;;;;;20.70;43.50;;;;;;447289;264;1229;-50
2022/09/04 09:41:37;;;;;;;;;;;20.70;43.60;;;;;;447261;264;1256;-50
2022/09/04 09:43:40;;;;;;;;;;;20.70;43.60;;;;;;447077;265;1258;-51
2022/09/04 09:45:40;;;;;;;;;;;20.70;43.60;;;;;;447443;264;1459;-50
2022/09/04 09:47:41;;;;;;;;;;;20.70;43.60;;;;;;447175;264;1397;-50
2022/09/04 09:49:43;;;;;;;;;;;20.70;43.60;;;;;;447065;265;1291;-50
2022/09/04 09:51:44;;;;;;;;;;;20.80;43.70;;;;;;447020;265;1324;-50
2022/09/04 09:53:45;;;;;;;;;;;20.70;43.70;;;;;;447047;265;2146;-50
2022/09/04 09:55:47;;;;;;;;;;;20.70;43.70;;;;;;447294;264;1262;-50
2022/09/04 09:57:48;;;;;;;;;;;20.80;43.80;;;;;;447411;264;1277;-50
2022/09/04 09:59:49;;;;;;;;;;;20.70;43.70;;;;;;447044;265;1258;-51
2022/09/04 10:01:51;;;;;;;;;;;20.70;43.80;;;;;;447277;264;1318;-49
2022/09/04 10:03:52;;;;;;;;;;;20.80;43.90;;;;;;447419;264;1344;-50
2022/09/04 10:05:53;;;;;;;;;;;20.70;43.80;;;;;;447037;264;1360;-51
2022/09/04 10:07:55;;;;;;;;;;;20.70;43.90;;;;;;447046;265;1273;-50
2022/09/04 10:09:56;;;;;;;;;;;20.80;43.90;;;;;;447395;264;1303;-49
2022/09/04 10:11:57;;;;;;;;;;;20.70;43.90;;;;;;446986;265;1362;-50
2022/09/04 10:13:59;;;;;;;;;;;20.70;43.90;;;;;;447427;264;2146;-50
2022/09/04 10:16:00;;;;;;;;;;;20.70;44.00;;;;;;447375;263;1274;-51
2022/09/04 10:18:01;;;;;;;;;;;20.70;44.00;;;;;;447022;265;1253;-50
2022/09/04 10:20:03;;;;;;;;;;;20.70;44.00;;;;;;447246;264;1313;-50
2022/09/04 10:22:04;;;;;;;;;;;20.70;44.00;;;;;;447119;264;1276;-50
2022/09/04 10:24:05;;;;;;;;;;;20.70;44.00;;;;;;447137;264;1223;-50
2022/09/04 10:26:07;;;;;;;;;;;20.70;44.00;;;;;;447196;264;1209;-51
2022/09/04 10:28:08;;;;;;;;;;;20.70;44.10;;;;;;447120;264;1271;-51
2022/09/04 10:30:09;;;;;;;;;;;20.70;44.10;;;;;;447437;264;1311;-51
2022/09/04 10:32:11;;;;;;;;;;;20.70;44.10;;;;;;447112;264;1549;-51
2022/09/04 10:34:12;;;;;;;;;;;20.70;44.10;;;;;;447409;264;2184;-49
2022/09/04 10:36:13;;;;;;;;;;;20.70;44.20;;;;;;447275;264;1321;-49
2022/09/04 10:38:15;;;;;;;;;;;20.70;44.20;;;;;;447053;265;1311;-50
2022/09/04 10:42:35;;;;;;;;;;;20.70;44.20;;;;;;447129;264;1262;-50
2022/09/04 10:44:37;;;;;;;;;;;20.70;44.20;;;;;;447082;265;1371;-50
2022/09/04 10:46:38;;;;;;;;;;;20.70;44.20;;;;;;447047;265;1299;-50
2022/09/04 10:48:39;;;;;;;;;;;20.70;44.20;;;;;;447051;265;1299;-50
2022/09/04 10:50:42;;;;;;;;;;;20.70;44.30;;;;;;447266;264;1340;-50
2022/09/04 10:52:42;;;;;;;;;;;20.70;44.40;;;;;;447068;265;2219;-50
2022/09/04 10:54:44;;;;;;;;;;;20.70;44.40;;;;;;447131;264;1281;-51
2022/09/04 10:56:45;;;;;;;;;;;20.70;44.40;;;;;;447055;265;1245;-50
2022/09/04 10:58:46;;;;;;;;;;;20.70;44.40;;;;;;447452;264;1731;-50
2022/09/04 11:00:49;;;;;;;;;;;20.70;44.40;;;;;;447328;264;1318;-51
2022/09/04 11:02:50;;;;;;;;;;;20.70;44.40;;;;;;447082;265;2200;-50
2022/09/04 11:04:51;;;;;;;;;;;20.70;44.50;;;;;;447073;265;1406;-51
2022/09/04 11:06:52;;;;;;;;;;;20.70;44.50;;;;;;447428;264;1280;-51
2022/09/04 11:08:54;;;;;;;;;;;20.70;44.50;;;;;;447061;265;1332;-50
2022/09/04 11:10:55;;;;;;;;;;;20.70;44.50;;;;;;447056;265;1304;-50
2022/09/04 11:12:56;;;;;;;;;;;20.70;44.50;;;;;;447455;264;2217;-50
2022/09/04 11:14:58;;;;;;;;;;;20.70;44.50;;;;;;447444;264;1273;-50
2022/09/04 11:16:59;;;;;;;;;;;20.70;44.50;;;;;;447356;264;1274;-51
2022/09/04 11:19:01;;;;;;;;;;;20.70;44.60;;;;;;447455;264;1232;-50
2022/09/04 11:21:02;;;;;;;;;;;20.70;44.60;;;;;;447078;265;1195;-50
2022/09/04 11:23:03;;;;;;;;;;;20.70;44.60;;;;;;447069;265;1295;-51
2022/09/04 11:25:05;;;;;;;;;;;20.70;44.60;;;;;;447128;264;1283;-50
2022/09/04 11:27:06;;;;;;;;;;;20.70;44.60;;;;;;447037;265;1301;-51
2022/09/04 11:29:09;;;;;;;;;;;20.70;44.70;;;;;;447052;265;1232;-50
2022/09/04 11:31:09;;;;;;;;;;;20.70;44.70;;;;;;447058;264;1395;-50
2022/09/04 11:33:11;;;;;;;;;;;20.60;44.70;;;;;;447431;264;2207;-51
2022/09/04 11:35:12;;;;;;;;;;;20.70;44.80;;;;;;447205;264;1295;-50
2022/09/04 11:37:14;;;;;;;;;;;20.70;44.70;;;;;;447041;265;1450;-51
2022/09/04 11:39:16;;;;;;;;;;;20.60;44.80;;;;;;447315;264;1280;-49
2022/09/04 11:41:17;;;;;;;;;;;20.70;44.80;;;;;;447000;265;1302;-50
2022/09/04 11:43:18;;;;;;;;;;;20.70;44.80;;;;;;447380;264;1267;-50
2022/09/04 11:45:20;;;;;;;;;;;20.60;44.80;;;;;;447331;264;1246;-50
2022/09/04 11:47:22;;;;;;;;;;;20.60;44.80;;;;;;446996;265;1494;-50
2022/09/04 11:49:22;;;;;;;;;;;20.70;44.90;;;;;;447380;264;2539;-50
2022/09/04 11:51:24;;;;;;;;;;;20.60;44.80;;;;;;447004;264;1348;-50
2022/09/04 11:53:25;;;;;;;;;;;20.60;44.90;;;;;;446988;265;2169;-51
2022/09/04 11:55:27;;;;;;;;;;;20.60;44.90;;;;;;447097;264;1430;-50
2022/09/04 11:57:28;;;;;;;;;;;20.60;44.90;;;;;;447164;264;1324;-51
2022/09/04 11:59:30;;;;;;;;;;;20.70;45.00;;;;;;447234;264;1315;-50